sensor_id;sensor_type;location;lat;lon;timestamp;pressure;altitude;pressure_sealevel;temperature;humidity
48517;BME280;34310;51.904;4.256;2023-09-19T00:00:50;100785.81;;;23.58;58.32
48517;BME280;34310;51.904;4.256;2023-09-19T00:03:21;100778.66;;;23.54;58.17
48517;BME280;34310;51.904;4.256;2023-09-19T00:05:48;100792.78;;;23.56;58.41
48517;BME280;34310;51.904;4.256;2023-09-19T00:08:14;100790.06;;;23.53;58.41
48517;BME280;34310;51.904;4.256;2023-09-19T00:10:42;100803.34;;;23.56;58.30
48517;BME280;34310;51.904;4.256;2023-09-19T00:13:09;100798.00;;;23.54;58.31
48517;BME280;34310;51.904;4.256;2023-09-19T00:15:43;100805.91;;;23.54;58.37
48517;BME280;34310;51.904;4.256;2023-09-19T00:18:10;100812.03;;;23.52;58.17
48517;BME280;34310;51.904;4.256;2023-09-19T00:20:37;100812.03;;;23.52;58.32
48517;BME280;34310;51.904;4.256;2023-09-19T00:23:05;100815.53;;;23.52;58.47
48517;BME280;34310;51.904;4.256;2023-09-19T00:25:31;100813.75;;;23.49;58.19
48517;BME280;34310;51.904;4.256;2023-09-19T00:27:58;100817.25;;;23.48;58.33
48517;BME280;34310;51.904;4.256;2023-09-19T00:30:24;100816.38;;;23.49;58.04
48517;BME280;34310;51.904;4.256;2023-09-19T00:32:51;100814.50;;;23.42;58.24
48517;BME280;34310;51.904;4.256;2023-09-19T00:35:17;100831.28;;;23.47;58.20
48517;BME280;34310;51.904;4.256;2023-09-19T00:37:44;100828.63;;;23.47;58.44
48517;BME280;34310;51.904;4.256;2023-09-19T00:40:11;100832.13;;;23.46;58.19
48517;BME280;34310;51.904;4.256;2023-09-19T00:42:39;100831.25;;;23.46;58.26
48517;BME280;34310;51.904;4.256;2023-09-19T00:45:07;100811.72;;;23.36;58.40
48517;BME280;34310;51.904;4.256;2023-09-19T00:47:33;100809.03;;;23.33;58.45
48517;BME280;34310;51.904;4.256;2023-09-19T00:50:00;100822.41;;;23.42;58.19
48517;BME280;34310;51.904;4.256;2023-09-19T00:52:27;100804.59;;;23.31;58.28
48517;BME280;34310;51.904;4.256;2023-09-19T00:54:54;100830.25;;;23.41;58.19
48517;BME280;34310;51.904;4.256;2023-09-19T00:57:20;100821.41;;;23.37;58.37
48517;BME280;34310;51.904;4.256;2023-09-19T00:59:49;100831.94;;;23.37;58.34
48517;BME280;34310;51.904;4.256;2023-09-19T01:02:16;100825.78;;;23.37;58.28
48517;BME280;34310;51.904;4.256;2023-09-19T01:04:44;100835.44;;;23.36;58.21
48517;BME280;34310;51.904;4.256;2023-09-19T01:07:11;100838.09;;;23.38;58.22
48517;BME280;34310;51.904;4.256;2023-09-19T01:09:38;100839.84;;;23.37;58.20
48517;BME280;34310;51.904;4.256;2023-09-19T01:12:05;100840.72;;;23.36;58.31
48517;BME280;34310;51.904;4.256;2023-09-19T01:14:43;100840.72;;;23.36;58.11
48517;BME280;34310;51.904;4.256;2023-09-19T01:17:24;100833.59;;;23.31;58.37
48517;BME280;34310;51.904;4.256;2023-09-19T01:23:00;100819.31;;;23.18;58.34
48517;BME280;34310;51.904;4.256;2023-09-19T01:25:42;100847.66;;;23.33;58.03
48517;BME280;34310;51.904;4.256;2023-09-19T01:30:46;100850.28;;;23.31;58.32
48517;BME280;34310;51.904;4.256;2023-09-19T01:33:13;100838.78;;;23.28;58.37
48517;BME280;34310;51.904;4.256;2023-09-19T01:35:40;100837.06;;;23.28;57.91
48517;BME280;34310;51.904;4.256;2023-09-19T01:38:06;100844.09;;;23.29;58.42
48517;BME280;34310;51.904;4.256;2023-09-19T01:40:37;100843.16;;;23.26;58.16
48517;BME280;34310;51.904;4.256;2023-09-19T01:43:33;100850.22;;;23.28;58.33
48517;BME280;34310;51.904;4.256;2023-09-19T01:46:09;100840.53;;;23.27;58.17
48517;BME280;34310;51.904;4.256;2023-09-19T01:48:46;100844.03;;;23.26;58.16
48517;BME280;34310;51.904;4.256;2023-09-19T01:51:18;100838.72;;;23.23;58.15
48517;BME280;34310;51.904;4.256;2023-09-19T01:54:00;100836.97;;;23.24;58.24
48517;BME280;34310;51.904;4.256;2023-09-19T01:56:40;100836.09;;;23.23;58.13
48517;BME280;34310;51.904;4.256;2023-09-19T01:59:14;100830.66;;;23.15;58.13
48517;BME280;34310;51.904;4.256;2023-09-19T02:01:44;100845.69;;;23.21;58.26
48517;BME280;34310;51.904;4.256;2023-09-19T02:04:12;100845.66;;;23.20;58.22
48517;BME280;34310;51.904;4.256;2023-09-19T02:06:41;100844.78;;;23.19;58.31
48517;BME280;34310;51.904;4.256;2023-09-19T02:09:08;100839.50;;;23.17;58.08
48517;BME280;34310;51.904;4.256;2023-09-19T02:11:35;100835.09;;;23.18;58.23
48517;BME280;34310;51.904;4.256;2023-09-19T02:14:01;100837.72;;;23.16;58.16
48517;BME280;34310;51.904;4.256;2023-09-19T02:16:28;100841.22;;;23.17;58.07
48517;BME280;34310;51.904;4.256;2023-09-19T02:18:55;100841.22;;;23.17;57.95
48517;BME280;34310;51.904;4.256;2023-09-19T02:21:21;100822.56;;;23.06;58.39
48517;BME280;34310;51.904;4.256;2023-09-19T02:23:48;100844.72;;;23.16;58.24
48517;BME280;34310;51.904;4.256;2023-09-19T02:26:15;100831.34;;;23.07;58.23
48517;BME280;34310;51.904;4.256;2023-09-19T02:28:41;100847.28;;;23.13;58.02
48517;BME280;34310;51.904;4.256;2023-09-19T02:31:08;100854.34;;;23.14;58.28
48517;BME280;34310;51.904;4.256;2023-09-19T02:33:34;100848.13;;;23.12;57.99
48517;BME280;34310;51.904;4.256;2023-09-19T02:36:01;100841.84;;;23.05;58.15
48517;BME280;34310;51.904;4.256;2023-09-19T02:38:28;100855.13;;;23.11;58.24
48517;BME280;34310;51.904;4.256;2023-09-19T02:40:55;100855.13;;;23.11;58.21
48517;BME280;34310;51.904;4.256;2023-09-19T02:43:22;100856.84;;;23.09;58.26
48517;BME280;34310;51.904;4.256;2023-09-19T02:45:49;100842.75;;;23.06;58.08
48517;BME280;34310;51.904;4.256;2023-09-19T02:48:16;100848.97;;;23.09;58.07
48517;BME280;34310;51.904;4.256;2023-09-19T02:50:43;100839.28;;;23.08;58.09
48517;BME280;34310;51.904;4.256;2023-09-19T02:53:10;100837.50;;;23.07;58.14
48517;BME280;34310;51.904;4.256;2023-09-19T02:55:36;100844.53;;;23.07;58.24
48517;BME280;34310;51.904;4.256;2023-09-19T02:58:03;100837.44;;;23.04;57.95
48517;BME280;34310;51.904;4.256;2023-09-19T03:00:29;100840.06;;;23.03;58.32
48517;BME280;34310;51.904;4.256;2023-09-19T03:02:56;100850.56;;;23.01;58.27
48517;BME280;34310;51.904;4.256;2023-09-19T03:05:23;100848.88;;;23.05;57.92
48517;BME280;34310;51.904;4.256;2023-09-19T03:07:50;100858.50;;;23.04;58.18
48517;BME280;34310;51.904;4.256;2023-09-19T03:10:17;100853.22;;;23.03;57.97
48517;BME280;34310;51.904;4.256;2023-09-19T03:12:45;100851.44;;;23.02;58.04
48517;BME280;34310;51.904;4.256;2023-09-19T03:15:12;100853.22;;;23.03;58.43
48517;BME280;34310;51.904;4.256;2023-09-19T03:17:43;100851.44;;;23.02;57.97
48517;BME280;34310;51.904;4.256;2023-09-19T03:20:10;100853.19;;;23.01;58.15
48517;BME280;34310;51.904;4.256;2023-09-19T03:22:36;100857.56;;;23.01;58.20
48517;BME280;34310;51.904;4.256;2023-09-19T03:25:03;100849.63;;;22.99;58.10
48517;BME280;34310;51.904;4.256;2023-09-19T03:27:29;100853.16;;;23.00;58.28
48517;BME280;34310;51.904;4.256;2023-09-19T03:29:56;100854.91;;;22.99;58.40
48517;BME280;34310;51.904;4.256;2023-09-19T03:32:22;100845.22;;;22.98;58.08
48517;BME280;34310;51.904;4.256;2023-09-19T03:34:49;100847.88;;;22.98;58.29
48517;BME280;34310;51.904;4.256;2023-09-19T03:37:15;100847.84;;;22.97;58.05
48517;BME280;34310;51.904;4.256;2023-09-19T03:39:42;100856.63;;;22.97;58.39
48517;BME280;34310;51.904;4.256;2023-09-19T03:42:08;100846.00;;;22.93;58.32
48517;BME280;34310;51.904;4.256;2023-09-19T03:44:35;100844.16;;;22.89;58.25
48517;BME280;34310;51.904;4.256;2023-09-19T03:47:01;100859.94;;;22.87;58.16
48517;BME280;34310;51.904;4.256;2023-09-19T03:49:28;100866.09;;;22.88;58.40
48517;BME280;34310;51.904;4.256;2023-09-19T03:51:54;100866.94;;;22.86;58.33
48517;BME280;34310;51.904;4.256;2023-09-19T03:54:21;100866.09;;;22.88;58.07
48517;BME280;34310;51.904;4.256;2023-09-19T03:56:47;100874.97;;;22.93;58.06
48517;BME280;34310;51.904;4.256;2023-09-19T03:59:14;100876.75;;;22.94;58.22
48517;BME280;34310;51.904;4.256;2023-09-19T04:01:40;100883.72;;;22.92;58.24
48517;BME280;34310;51.904;4.256;2023-09-19T04:04:07;100864.22;;;22.83;58.06
48517;BME280;34310;51.904;4.256;2023-09-19T04:06:34;100883.69;;;22.90;58.37
48517;BME280;34310;51.904;4.256;2023-09-19T04:09:04;100887.22;;;22.91;58.45
48517;BME280;34310;51.904;4.256;2023-09-19T04:11:30;100888.06;;;22.90;58.25
48517;BME280;34310;51.904;4.256;2023-09-19T04:13:57;100893.31;;;22.90;58.15
48517;BME280;34310;51.904;4.256;2023-09-19T04:16:23;100894.97;;;22.84;58.25
48517;BME280;34310;51.904;4.256;2023-09-19T04:18:50;100896.75;;;22.85;58.43
48517;BME280;34310;51.904;4.256;2023-09-19T04:21:17;100887.81;;;22.80;58.11
48517;BME280;34310;51.904;4.256;2023-09-19T04:23:43;100875.44;;;22.76;58.43
48517;BME280;34310;51.904;4.256;2023-09-19T04:26:09;100895.00;;;22.86;58.36
48517;BME280;34310;51.904;4.256;2023-09-19T04:28:36;100886.00;;;22.78;58.52
48517;BME280;34310;51.904;4.256;2023-09-19T04:31:02;100882.47;;;22.77;58.37
48517;BME280;34310;51.904;4.256;2023-09-19T04:33:29;100897.63;;;22.84;58.21
48517;BME280;34310;51.904;4.256;2023-09-19T04:35:56;100900.19;;;22.83;58.49
48517;BME280;34310;51.904;4.256;2023-09-19T04:38:28;100892.25;;;22.81;58.21
48517;BME280;34310;51.904;4.256;2023-09-19T04:40:58;100901.91;;;22.82;58.13
48517;BME280;34310;51.904;4.256;2023-09-19T04:43:25;100901.88;;;22.81;58.15
48517;BME280;34310;51.904;4.256;2023-09-19T04:45:52;100908.94;;;22.82;58.14
48517;BME280;34310;51.904;4.256;2023-09-19T04:48:18;100907.16;;;22.81;58.23
48517;BME280;34310;51.904;4.256;2023-09-19T04:50:45;100906.22;;;22.80;58.43
48517;BME280;34310;51.904;4.256;2023-09-19T04:53:11;100908.88;;;22.80;58.43
48517;BME280;34310;51.904;4.256;2023-09-19T04:55:38;100899.16;;;22.78;58.24
48517;BME280;34310;51.904;4.256;2023-09-19T04:58:04;100890.28;;;22.73;58.31
48517;BME280;34310;51.904;4.256;2023-09-19T05:00:31;100904.38;;;22.76;58.34
48517;BME280;34310;51.904;4.256;2023-09-19T05:02:57;100905.28;;;22.77;58.42
48517;BME280;34310;51.904;4.256;2023-09-19T05:05:24;100908.81;;;22.77;58.35
48517;BME280;34310;51.904;4.256;2023-09-19T05:07:51;100900.81;;;22.73;58.44
48517;BME280;34310;51.904;4.256;2023-09-19T05:10:18;100910.53;;;22.77;58.32
48517;BME280;34310;51.904;4.256;2023-09-19T05:12:44;100914.03;;;22.76;58.35
48517;BME280;34310;51.904;4.256;2023-09-19T05:15:11;100900.75;;;22.70;58.41
48517;BME280;34310;51.904;4.256;2023-09-19T05:17:37;100912.25;;;22.75;58.22
48517;BME280;34310;51.904;4.256;2023-09-19T05:20:04;100915.78;;;22.75;58.44
48517;BME280;34310;51.904;4.256;2023-09-19T05:22:31;100907.81;;;22.72;58.42
48517;BME280;34310;51.904;4.256;2023-09-19T05:24:58;100898.00;;;22.65;58.17
48517;BME280;34310;51.904;4.256;2023-09-19T05:27:25;100906.97;;;22.73;58.43
48517;BME280;34310;51.904;4.256;2023-09-19T05:29:51;100884.84;;;22.65;58.57
48517;BME280;34310;51.904;4.256;2023-09-19T05:32:18;100894.66;;;22.72;58.37
48517;BME280;34310;51.904;4.256;2023-09-19T05:34:44;100890.16;;;22.67;58.35
48517;BME280;34310;51.904;4.256;2023-09-19T05:37:11;100902.47;;;22.69;58.44
48517;BME280;34310;51.904;4.256;2023-09-19T05:39:37;100898.97;;;22.69;58.47
48517;BME280;34310;51.904;4.256;2023-09-19T05:42:04;100908.59;;;22.68;58.19
48517;BME280;34310;51.904;4.256;2023-09-19T05:44:30;100900.75;;;22.70;58.27
48517;BME280;34310;51.904;4.256;2023-09-19T05:46:57;100912.09;;;22.67;58.38
48517;BME280;34310;51.904;4.256;2023-09-19T05:49:23;100911.22;;;22.68;58.46
48517;BME280;34310;51.904;4.256;2023-09-19T05:51:50;100911.09;;;22.62;58.35
48517;BME280;34310;51.904;4.256;2023-09-19T05:54:16;100920.03;;;22.69;58.15
48517;BME280;34310;51.904;4.256;2023-09-19T05:56:43;100903.97;;;22.56;58.48
48517;BME280;34310;51.904;4.256;2023-09-19T05:59:09;100930.50;;;22.67;58.26
48517;BME280;34310;51.904;4.256;2023-09-19T06:01:36;100941.03;;;22.67;58.29
48517;BME280;34310;51.904;4.256;2023-09-19T06:04:03;100934.00;;;22.66;58.42
48517;BME280;34310;51.904;4.256;2023-09-19T06:06:29;100940.13;;;22.65;58.52
48517;BME280;34310;51.904;4.256;2023-09-19T06:08:56;100934.81;;;22.64;58.43
48517;BME280;34310;51.904;4.256;2023-09-19T06:11:22;100938.31;;;22.63;58.59
48517;BME280;34310;51.904;4.256;2023-09-19T06:13:49;100939.22;;;22.65;58.53
48517;BME280;34310;51.904;4.256;2023-09-19T06:16:15;100940.09;;;22.64;58.29
48517;BME280;34310;51.904;4.256;2023-09-19T06:18:42;100932.84;;;22.55;58.61
48517;BME280;34310;51.904;4.256;2023-09-19T06:21:08;100947.09;;;22.63;58.35
48517;BME280;34310;51.904;4.256;2023-09-19T06:23:35;100940.91;;;22.61;58.51
48517;BME280;34310;51.904;4.256;2023-09-19T06:26:01;100930.31;;;22.58;58.49
48517;BME280;34310;51.904;4.256;2023-09-19T06:28:28;100930.34;;;22.60;58.33
48517;BME280;34310;51.904;4.256;2023-09-19T06:30:54;100935.63;;;22.61;58.27
48517;BME280;34310;51.904;4.256;2023-09-19T06:33:21;100915.03;;;22.43;58.27
48517;BME280;34310;51.904;4.256;2023-09-19T06:35:48;100935.56;;;22.58;58.49
48517;BME280;34310;51.904;4.256;2023-09-19T06:38:14;100941.69;;;22.57;58.23
48517;BME280;34310;51.904;4.256;2023-09-19T06:40:41;100935.56;;;22.58;58.54
48517;BME280;34310;51.904;4.256;2023-09-19T06:43:09;100923.00;;;22.46;58.23
48517;BME280;34310;51.904;4.256;2023-09-19T06:45:36;100945.22;;;22.58;58.41
48517;BME280;34310;51.904;4.256;2023-09-19T06:48:03;100934.47;;;22.50;58.47
48517;BME280;34310;51.904;4.256;2023-09-19T06:50:29;100949.63;;;22.59;58.50
48517;BME280;34310;51.904;4.256;2023-09-19T06:52:57;100931.84;;;22.50;58.36
48517;BME280;34310;51.904;4.256;2023-09-19T06:55:24;100957.50;;;22.59;58.46
48517;BME280;34310;51.904;4.256;2023-09-19T06:57:50;100929.22;;;22.50;58.34
48517;BME280;34310;51.904;4.256;2023-09-19T07:00:17;100947.81;;;22.56;58.66
48517;BME280;34310;51.904;4.256;2023-09-19T07:02:45;100947.81;;;22.56;58.63
48517;BME280;34310;51.904;4.256;2023-09-19T07:05:11;100943.31;;;22.53;58.63
48517;BME280;34310;51.904;4.256;2023-09-19T07:07:38;100930.06;;;22.49;58.71
48517;BME280;34310;51.904;4.256;2023-09-19T07:10:05;100957.47;;;22.57;58.62
48517;BME280;34310;51.904;4.256;2023-09-19T07:12:32;100933.59;;;22.49;58.68
48517;BME280;34310;51.904;4.256;2023-09-19T07:14:58;100936.19;;;22.48;58.38
48517;BME280;34310;51.904;4.256;2023-09-19T07:17:25;100928.06;;;22.39;58.55
48517;BME280;34310;51.904;4.256;2023-09-19T07:19:51;100942.41;;;22.51;58.49
48517;BME280;34310;51.904;4.256;2023-09-19T07:22:18;100924.50;;;22.35;58.62
48517;BME280;34310;51.904;4.256;2023-09-19T07:24:44;100929.06;;;22.44;58.54
48517;BME280;34310;51.904;4.256;2023-09-19T07:27:10;100947.59;;;22.48;58.55
48517;BME280;34310;51.904;4.256;2023-09-19T07:29:37;100952.84;;;22.48;58.79
48517;BME280;34310;51.904;4.256;2023-09-19T07:32:04;100937.75;;;22.40;58.48
48517;BME280;34310;51.904;4.256;2023-09-19T07:34:30;100916.59;;;22.35;58.65
48517;BME280;34310;51.904;4.256;2023-09-19T07:36:57;100938.75;;;22.45;58.73
48517;BME280;34310;51.904;4.256;2023-09-19T07:39:23;100941.44;;;22.48;58.50
48517;BME280;34310;51.904;4.256;2023-09-19T07:41:50;100960.00;;;22.54;58.75
48517;BME280;34310;51.904;4.256;2023-09-19T07:44:16;100962.72;;;22.55;58.66
48517;BME280;34310;51.904;4.256;2023-09-19T07:46:43;100934.41;;;22.47;58.63
48517;BME280;34310;51.904;4.256;2023-09-19T07:49:09;100943.31;;;22.53;58.75
48517;BME280;34310;51.904;4.256;2023-09-19T07:51:36;100937.03;;;22.47;58.66
48517;BME280;34310;51.904;4.256;2023-09-19T07:54:02;100940.56;;;22.47;58.71
48517;BME280;34310;51.904;4.256;2023-09-19T07:56:29;100944.06;;;22.48;58.56
48517;BME280;34310;51.904;4.256;2023-09-19T07:58:55;100954.81;;;22.55;58.74
48517;BME280;34310;51.904;4.256;2023-09-19T08:01:22;100959.16;;;22.55;58.71
48517;BME280;34310;51.904;4.256;2023-09-19T08:03:48;100950.38;;;22.54;58.66
48517;BME280;34310;51.904;4.256;2023-09-19T08:06:15;100959.16;;;22.55;58.70
48517;BME280;34310;51.904;4.256;2023-09-19T08:08:42;100952.13;;;22.54;58.58
48517;BME280;34310;51.904;4.256;2023-09-19T08:11:08;100932.66;;;22.47;58.50
48517;BME280;34310;51.904;4.256;2023-09-19T08:13:35;100946.00;;;22.55;58.51
48517;BME280;34310;51.904;4.256;2023-09-19T08:16:03;100927.44;;;22.49;58.55
48517;BME280;34310;51.904;4.256;2023-09-19T08:18:30;100924.88;;;22.52;58.61
48517;BME280;34310;51.904;4.256;2023-09-19T08:20:56;100941.66;;;22.55;58.77
48517;BME280;34310;51.904;4.256;2023-09-19T08:23:23;100928.50;;;22.55;58.91
48517;BME280;34310;51.904;4.256;2023-09-19T08:25:50;100930.22;;;22.55;58.67
48517;BME280;34310;51.904;4.256;2023-09-19T08:28:17;100933.75;;;22.55;58.77
48517;BME280;34310;51.904;4.256;2023-09-19T08:30:43;100932.91;;;22.56;58.87
48517;BME280;34310;51.904;4.256;2023-09-19T08:33:10;100912.47;;;22.46;58.60
48517;BME280;34310;51.904;4.256;2023-09-19T08:35:36;100907.28;;;22.49;58.57
48517;BME280;34310;51.904;4.256;2023-09-19T08:38:03;100931.16;;;22.57;58.65
48517;BME280;34310;51.904;4.256;2023-09-19T08:40:30;100922.31;;;22.55;58.52
48517;BME280;34310;51.904;4.256;2023-09-19T08:42:57;100917.91;;;22.54;58.65
48517;BME280;34310;51.904;4.256;2023-09-19T08:45:24;100922.28;;;22.53;58.71
48517;BME280;34310;51.904;4.256;2023-09-19T08:50:51;100936.31;;;22.54;58.79
48517;BME280;34310;51.904;4.256;2023-09-19T08:53:40;100934.66;;;22.56;58.44
48517;BME280;34310;51.904;4.256;2023-09-19T08:56:10;100926.69;;;22.54;58.73
48517;BME280;34310;51.904;4.256;2023-09-19T08:58:50;100915.19;;;22.51;58.64
48517;BME280;34310;51.904;4.256;2023-09-19T09:01:18;100916.16;;;22.54;58.96
48517;BME280;34310;51.904;4.256;2023-09-19T09:03:46;100929.38;;;22.56;58.72
48517;BME280;34310;51.904;4.256;2023-09-19T09:06:15;100951.38;;;22.58;58.57
48517;BME280;34310;51.904;4.256;2023-09-19T09:08:44;100928.56;;;22.59;58.93
48517;BME280;34310;51.904;4.256;2023-09-19T09:11:11;100940.84;;;22.58;58.62
48517;BME280;34310;51.904;4.256;2023-09-19T09:13:41;100937.31;;;22.58;58.71
48517;BME280;34310;51.904;4.256;2023-09-19T09:16:08;100947.00;;;22.59;58.78
48517;BME280;34310;51.904;4.256;2023-09-19T09:18:34;100890.47;;;22.43;58.73
48517;BME280;34310;51.904;4.256;2023-09-19T09:21:01;100930.31;;;22.58;58.74
48517;BME280;34310;51.904;4.256;2023-09-19T09:23:28;100922.38;;;22.56;59.02
48517;BME280;34310;51.904;4.256;2023-09-19T09:25:55;100939.94;;;22.58;59.10
48517;BME280;34310;51.904;4.256;2023-09-19T09:28:24;100927.69;;;22.58;58.85
48517;BME280;34310;51.904;4.256;2023-09-19T09:30:51;100924.25;;;22.62;58.95
48517;BME280;34310;51.904;4.256;2023-09-19T09:33:17;100931.31;;;22.63;59.10
48517;BME280;34310;51.904;4.256;2023-09-19T09:35:54;100925.97;;;22.60;58.78
48517;BME280;34310;51.904;4.256;2023-09-19T09:38:23;100919.00;;;22.62;58.88
48517;BME280;34310;51.904;4.256;2023-09-19T09:40:51;100906.63;;;22.58;58.80
48517;BME280;34310;51.904;4.256;2023-09-19T09:43:46;100919.88;;;22.63;58.95
48517;BME280;34310;51.904;4.256;2023-09-19T09:46:15;100919.91;;;22.64;59.03
48517;BME280;34310;51.904;4.256;2023-09-19T09:48:42;100894.22;;;22.54;58.74
48517;BME280;34310;51.904;4.256;2023-09-19T09:51:08;100915.50;;;22.63;58.94
48517;BME280;34310;51.904;4.256;2023-09-19T09:53:35;100893.38;;;22.55;59.01
48517;BME280;34310;51.904;4.256;2023-09-19T09:58:29;100917.31;;;22.66;59.05
48517;BME280;34310;51.904;4.256;2023-09-19T10:00:56;100917.28;;;22.64;58.95
48517;BME280;34310;51.904;4.256;2023-09-19T10:03:33;100892.56;;;22.58;58.91
48517;BME280;34310;51.904;4.256;2023-09-19T10:06:00;100901.56;;;22.67;59.13
48517;BME280;34310;51.904;4.256;2023-09-19T10:08:27;100894.38;;;22.60;59.14
48517;BME280;34310;51.904;4.256;2023-09-19T10:10:53;100896.31;;;22.67;59.13
48517;BME280;34310;51.904;4.256;2023-09-19T10:13:21;100866.34;;;22.61;58.85
48517;BME280;34310;51.904;4.256;2023-09-19T10:15:51;100887.53;;;22.68;59.07
48517;BME280;34310;51.904;4.256;2023-09-19T10:18:26;100891.97;;;22.69;59.07
48517;BME280;34310;51.904;4.256;2023-09-19T10:20:52;100890.22;;;22.70;59.04
48517;BME280;34310;51.904;4.256;2023-09-19T10:23:20;100882.28;;;22.68;59.05
48517;BME280;34310;51.904;4.256;2023-09-19T10:25:48;100889.34;;;22.71;59.00
48517;BME280;34310;51.904;4.256;2023-09-19T10:28:17;100888.47;;;22.70;59.04
48517;BME280;34310;51.904;4.256;2023-09-19T10:30:45;100882.31;;;22.70;58.90
48517;BME280;34310;51.904;4.256;2023-09-19T10:33:13;100876.06;;;22.65;58.79
48517;BME280;34310;51.904;4.256;2023-09-19T10:35:42;100890.28;;;22.73;59.15
48517;BME280;34310;51.904;4.256;2023-09-19T10:38:11;100862.03;;;22.64;58.87
48517;BME280;34310;51.904;4.256;2023-09-19T10:40:38;100881.47;;;22.71;58.73
48517;BME280;34310;51.904;4.256;2023-09-19T10:43:05;100873.59;;;22.72;59.05
48517;BME280;34310;51.904;4.256;2023-09-19T10:45:34;100856.94;;;22.73;59.11
48517;BME280;34310;51.904;4.256;2023-09-19T10:48:02;100864.84;;;22.73;58.89
48517;BME280;34310;51.904;4.256;2023-09-19T10:50:32;100865.66;;;22.71;58.87
48517;BME280;34310;51.904;4.256;2023-09-19T10:53:04;100868.38;;;22.74;58.93
48517;BME280;34310;51.904;4.256;2023-09-19T10:55:35;100855.19;;;22.74;58.71
48517;BME280;34310;51.904;4.256;2023-09-19T10:58:02;100847.25;;;22.71;58.97
48517;BME280;34310;51.904;4.256;2023-09-19T11:00:30;100852.59;;;22.75;58.91
48517;BME280;34310;51.904;4.256;2023-09-19T11:05:41;100859.63;;;22.75;58.79
48517;BME280;34310;51.904;4.256;2023-09-19T11:08:08;100842.00;;;22.72;58.83
48517;BME280;34310;51.904;4.256;2023-09-19T11:10:51;100871.06;;;22.77;58.82
48517;BME280;34310;51.904;4.256;2023-09-19T11:13:25;100852.53;;;22.72;58.90
48517;BME280;34310;51.904;4.256;2023-09-19T11:21:53;100847.31;;;22.74;58.94
48517;BME280;34310;51.904;4.256;2023-09-19T11:26:46;100846.47;;;22.76;58.90
48517;BME280;34310;51.904;4.256;2023-09-19T11:29:29;100838.66;;;22.79;59.05
48517;BME280;34310;51.904;4.256;2023-09-19T11:31:55;100835.03;;;22.74;59.03
48517;BME280;34310;51.904;4.256;2023-09-19T11:34:42;100861.47;;;22.80;58.96
48517;BME280;34310;51.904;4.256;2023-09-19T11:39:35;100829.84;;;22.77;58.83
48517;BME280;34310;51.904;4.256;2023-09-19T11:42:41;100834.34;;;22.81;58.81
48517;BME280;34310;51.904;4.256;2023-09-19T11:48:07;100834.28;;;22.80;59.03
48517;BME280;34310;51.904;4.256;2023-09-19T11:50:35;100819.25;;;22.74;59.03
48517;BME280;34310;51.904;4.256;2023-09-19T11:53:02;100822.75;;;22.75;58.94
48517;BME280;34310;51.904;4.256;2023-09-19T11:55:29;100818.34;;;22.74;59.07
48517;BME280;34310;51.904;4.256;2023-09-19T11:57:56;100835.25;;;22.83;58.92
48517;BME280;34310;51.904;4.256;2023-09-19T12:00:23;100815.69;;;22.72;59.03
48517;BME280;34310;51.904;4.256;2023-09-19T12:02:55;100835.25;;;22.83;58.90
48517;BME280;34310;51.904;4.256;2023-09-19T12:05:29;100828.22;;;22.82;58.93
48517;BME280;34310;51.904;4.256;2023-09-19T12:07:55;100801.69;;;22.75;59.06
48517;BME280;34310;51.904;4.256;2023-09-19T12:10:22;100831.78;;;22.84;58.84
48517;BME280;34310;51.904;4.256;2023-09-19T12:12:49;100835.31;;;22.85;58.99
48517;BME280;34310;51.904;4.256;2023-09-19T12:15:22;100826.44;;;22.81;58.75
48517;BME280;34310;51.904;4.256;2023-09-19T12:17:49;100831.72;;;22.83;58.75
48517;BME280;34310;51.904;4.256;2023-09-19T12:20:16;100821.97;;;22.79;58.54
48517;BME280;34310;51.904;4.256;2023-09-19T12:22:44;100837.06;;;22.84;58.83
48517;BME280;34310;51.904;4.256;2023-09-19T12:25:11;100844.03;;;22.84;58.66
48517;BME280;34310;51.904;4.256;2023-09-19T12:27:45;100842.38;;;22.88;58.77
48517;BME280;34310;51.904;4.256;2023-09-19T12:30:13;100850.28;;;22.88;58.58
48517;BME280;34310;51.904;4.256;2023-09-19T12:32:53;100827.22;;;22.79;58.55
48517;BME280;34310;51.904;4.256;2023-09-19T12:35:29;100854.69;;;22.89;58.79
48517;BME280;34310;51.904;4.256;2023-09-19T12:37:56;100854.69;;;22.89;58.60
48517;BME280;34310;51.904;4.256;2023-09-19T12:40:22;100838.91;;;22.89;58.67
48517;BME280;34310;51.904;4.256;2023-09-19T12:42:53;100831.88;;;22.89;58.72
48517;BME280;34310;51.904;4.256;2023-09-19T12:45:21;100839.75;;;22.88;58.85
48517;BME280;34310;51.904;4.256;2023-09-19T12:51:06;100838.06;;;22.91;58.51
48517;BME280;34310;51.904;4.256;2023-09-19T12:53:35;100833.69;;;22.92;58.83
48517;BME280;34310;51.904;4.256;2023-09-19T12:56:01;100845.78;;;22.83;58.65
48517;BME280;34310;51.904;4.256;2023-09-19T12:58:28;100832.78;;;22.90;58.71
48517;BME280;34310;51.904;4.256;2023-09-19T13:00:55;100810.75;;;22.86;58.55
48517;BME280;34310;51.904;4.256;2023-09-19T13:05:49;100836.34;;;22.93;58.54
48517;BME280;34310;51.904;4.256;2023-09-19T13:08:32;100826.72;;;22.94;58.50
48517;BME280;34310;51.904;4.256;2023-09-19T13:11:13;100819.69;;;22.94;58.74
48517;BME280;34310;51.904;4.256;2023-09-19T13:16:07;100816.16;;;22.92;58.62
48517;BME280;34310;51.904;4.256;2023-09-19T13:18:44;100799.38;;;22.87;58.45
48517;BME280;34310;51.904;4.256;2023-09-19T13:21:12;100808.19;;;22.89;58.58
48517;BME280;34310;51.904;4.256;2023-09-19T13:23:39;100809.94;;;22.89;58.81
48517;BME280;34310;51.904;4.256;2023-09-19T13:26:06;100845.16;;;22.95;58.41
48517;BME280;34310;51.904;4.256;2023-09-19T13:28:33;100829.41;;;22.97;58.46
48517;BME280;34310;51.904;4.256;2023-09-19T13:31:00;100828.47;;;22.95;58.40